Erechim, Brazil
Current Conditions -  °F | °C
As of 7:00 PM on Saturday 22 Nov 2014 (Local Time) from SBCH Reporting Station
Few Clouds Few Clouds  
Wind Chill: 75°   Ceiling: Unl
Heat Index: 75°   Visibility: 6mi
Dew Point: 55°   Wind: 12mph
Humidity: 50%   Direction: 320°NW
Pressure: 29.91"   Gusts: NA
Location:  27.63°S, 52.27°W
Report Text: SBCH 222100Z 32010KT 9999 FEW040 24/13 Q1013
Loading
Personal Weather Stations






























Interactive Weather Map New forecast layout! Learn more

10-Day Weather Forecast

Advertisements
Track Severe Weather on mobile